Time;durP1;ratioP1;P1;durP2;ratioP2;P2;SDS_P1;SDS_P2;PMS_P1;PMS_P2;Temp;Humidity;BMP_temperature;BMP_pressure;BME280_temperature;BME280_humidity;BME280_pressure;Samples;Min_cycle;Max_cycle;Signal;HPM_P1;HPM_P2
2021/10/26 00:02:28;;;;;;;9.90;6.63;;;;;;;11.54;75.10;99304.63;2618042;54;20026;-71
2021/10/26 00:05:00;;;;;;;9.30;6.18;;;;;;;11.54;74.43;99301.16;2618064;54;20030;-72
2021/10/26 00:07:30;;;;;;;10.15;6.45;;;;;;;11.55;74.45;99302.78;2618110;54;20035;-72
2021/10/26 00:10:00;;;;;;;9.07;5.47;;;;;;;11.57;74.80;99308.72;2617884;54;20038;-72
2021/10/26 00:12:30;;;;;;;10.40;6.22;;;;;;;11.60;74.28;99314.47;2618255;54;20049;-72
2021/10/26 00:14:59;;;;;;;9.38;5.82;;;;;;;11.63;74.46;99313.25;2617873;39;20430;-71
2021/10/26 00:17:30;;;;;;;7.68;5.70;;;;;;;11.63;74.25;99314.13;2617806;54;20039;-71
2021/10/26 00:20:02;;;;;;;11.70;6.15;;;;;;;11.63;74.18;99322.06;2617092;47;20023;-70
2021/10/26 00:22:32;;;;;;;8.40;5.45;;;;;;;11.65;74.03;99325.31;2617017;54;20026;-71
2021/10/26 00:25:02;;;;;;;6.53;5.10;;;;;;;11.64;74.25;99317.59;2616986;51;20558;-71
2021/10/26 00:27:32;;;;;;;5.55;4.70;;;;;;;11.66;74.63;99319.00;2616693;54;20042;-69
2021/10/26 00:30:02;;;;;;;8.48;5.20;;;;;;;11.64;74.36;99305.16;2617979;54;20035;-69
2021/10/26 00:32:31;;;;;;;9.32;5.70;;;;;;;11.62;74.25;99311.63;2618134;54;20051;-69
2021/10/26 00:35:04;;;;;;;9.15;6.05;;;;;;;11.62;74.51;99311.63;2617228;47;20022;-69
2021/10/26 00:37:34;;;;;;;10.10;5.70;;;;;;;11.64;74.56;99323.69;2618112;54;20034;-69
2021/10/26 00:40:05;;;;;;;7.68;5.10;;;;;;;11.60;73.97;99318.97;2618128;54;20045;-69
2021/10/26 00:42:35;;;;;;;7.47;5.45;;;;;;;11.55;74.64;99323.97;2618270;39;20441;-69
2021/10/26 00:45:07;;;;;;;8.38;5.40;;;;;;;11.57;74.50;99320.13;2617317;47;20030;-69
2021/10/26 00:47:36;;;;;;;10.60;6.00;;;;;;;11.64;74.41;99322.88;2616596;54;20042;-69
2021/10/26 00:50:10;;;;;;;8.90;5.65;;;;;;;11.68;73.95;99326.78;2617609;39;20446;-69
2021/10/26 00:52:40;;;;;;;;;;;;;;;11.60;73.88;99327.72;2618224;54;20056;-69
2021/10/26 00:55:11;;;;;;;8.13;5.55;;;;;;;11.59;74.18;99328.72;2617901;54;19938;-69
2021/10/26 00:57:43;;;;;;;9.00;5.72;;;;;;;11.61;74.29;99329.34;2617319;50;20015;-69
2021/10/26 01:00:16;;;;;;;8.95;6.00;;;;;;;11.61;74.13;99325.88;2617295;54;20552;-70
2021/10/26 01:02:47;;;;;;;8.77;5.47;;;;;;;11.61;74.23;99329.34;2618169;39;20459;-68
2021/10/26 01:05:29;;;;;;;10.25;5.93;;;;;;;11.59;74.38;99330.53;2617461;47;20022;-68
2021/10/26 01:07:58;;;;;;;7.93;5.85;;;;;;;11.55;74.21;99323.97;2617668;47;20060;-68
2021/10/26 01:10:29;;;;;;;7.03;6.25;;;;;;;11.56;74.53;99321.16;2617306;54;20034;-68
2021/10/26 01:12:59;;;;;;;7.65;5.60;;;;;;;11.53;74.46;99326.00;2617448;54;20039;-67
2021/10/26 01:15:30;;;;;;;8.00;5.65;;;;;;;11.57;74.63;99332.56;2617374;47;20553;-67
2021/10/26 01:18:09;;;;;;;7.47;5.68;;;;;;;11.59;74.39;99330.53;2617500;47;20185;-67
2021/10/26 01:20:42;;;;;;;10.95;6.75;;;;;;;11.63;74.13;99331.81;2617502;54;20035;-67
2021/10/26 01:23:12;;;;;;;8.07;5.75;;;;;;;11.64;74.49;99336.13;2617683;54;20038;-68
2021/10/26 01:25:42;;;;;;;12.32;6.18;;;;;;;11.61;73.97;99328.53;2617884;39;20439;-68
2021/10/26 01:28:12;;;;;;;11.55;6.72;;;;;;;11.56;74.58;99336.22;2617585;47;20026;-68
2021/10/26 01:30:43;;;;;;;9.52;6.38;;;;;;;11.57;74.12;99329.91;2617182;54;20533;-68
2021/10/26 01:33:35;;;;;;;8.50;6.22;;;;;;;11.60;74.59;99334.84;2618240;54;20648;-68
2021/10/26 01:36:29;;;;;;;9.88;6.28;;;;;;;11.62;74.31;99340.75;2618788;39;20394;-67
2021/10/26 01:38:59;;;;;;;9.48;6.15;;;;;;;11.62;74.44;99341.59;2618364;47;20022;-67
2021/10/26 01:41:31;;;;;;;8.20;6.32;;;;;;;11.62;74.36;99330.97;2618011;47;20027;-67
2021/10/26 01:44:01;;;;;;;10.20;6.35;;;;;;;11.66;74.30;99334.91;2618234;47;20026;-67
2021/10/26 01:46:32;;;;;;;11.35;6.68;;;;;;;11.66;74.47;99329.59;2618215;54;20566;-67
2021/10/26 01:49:02;;;;;;;8.80;7.18;;;;;;;11.68;73.92;99325.97;2618213;47;20046;-67
2021/10/26 01:51:35;;;;;;;12.20;6.93;;;;;;;11.63;74.13;99326.50;2617951;54;20038;-67
2021/10/26 01:54:05;;;;;;;10.05;6.10;;;;;;;11.60;74.12;99324.25;2618939;54;20046;-67
2021/10/26 01:56:41;;;;;;;9.40;6.13;;;;;;;11.59;74.21;99318.13;2617847;54;20294;-67
2021/10/26 01:59:14;;;;;;;9.07;6.45;;;;;;;11.56;74.28;99328.28;2617271;47;20033;-68
2021/10/26 02:01:47;;;;;;;8.32;5.97;;;;;;;11.55;74.76;99330.13;2618048;39;20413;-68
2021/10/26 02:04:30;;;;;;;11.35;6.38;;;;;;;11.52;74.83;99329.66;2618069;47;20034;-68
2021/10/26 02:07:02;;;;;;;8.50;6.15;;;;;;;11.51;74.97;99328.84;2618229;46;20026;-68
2021/10/26 02:09:33;;;;;;;10.73;5.75;;;;;;;11.53;74.87;99318.06;2618100;54;20030;-68
2021/10/26 02:12:05;;;;;;;8.68;6.57;;;;;;;11.52;74.51;99330.47;2617773;54;20049;-68
2021/10/26 02:14:36;;;;;;;11.77;6.85;;;;;;;11.52;75.01;99329.66;2617996;51;20033;-70
2021/10/26 02:17:07;;;;;;;8.73;6.55;;;;;;;11.51;75.10;99335.94;2618224;54;20070;-68
2021/10/26 02:19:37;;;;;;;11.93;6.03;;;;;;;11.52;74.63;99329.66;2618567;39;20463;-68
2021/10/26 02:22:10;;;;;;;10.98;6.72;;;;;;;11.47;75.08;99332.03;2617831;54;20585;-68
2021/10/26 02:24:39;;;;;;;7.70;5.90;;;;;;;11.49;75.31;99328.19;2618768;39;20524;-67
2021/10/26 02:27:09;;;;;;;8.32;5.90;;;;;;;11.45;74.80;99334.88;2617729;47;20027;-67
2021/10/26 02:29:40;;;;;;;9.82;6.63;;;;;;;11.43;75.25;99334.25;2618018;54;20027;-68
2021/10/26 02:32:11;;;;;;;8.43;6.60;;;;;;;11.45;75.19;99334.88;2617895;47;20038;-68
2021/10/26 02:34:41;;;;;;;11.52;6.32;;;;;;;11.48;75.45;99347.75;2618754;39;20715;-68
2021/10/26 02:37:14;;;;;;;9.65;6.18;;;;;;;11.49;75.16;99346.72;2618507;39;20436;-68
2021/10/26 02:39:43;;;;;;;9.00;6.30;;;;;;;11.51;74.91;99349.19;2618055;54;20034;-68
2021/10/26 02:42:13;;;;;;;10.63;5.97;;;;;;;11.50;74.90;99352.84;2617753;47;20563;-68
2021/10/26 02:44:43;;;;;;;9.40;6.32;;;;;;;11.46;75.36;99346.28;2618034;54;20042;-68
2021/10/26 02:47:14;;;;;;;9.60;5.95;;;;;;;11.49;75.22;99336.13;2618365;54;20034;-68
2021/10/26 02:49:44;;;;;;;9.48;5.65;;;;;;;11.51;75.43;99351.81;2618635;54;20038;-68
2021/10/26 02:52:16;;;;;;;10.43;5.60;;;;;;;11.52;75.18;99348.19;2617646;54;20034;-68
2021/10/26 02:54:46;;;;;;;11.20;6.55;;;;;;;11.54;75.05;99349.63;2618012;54;20041;-67
2021/10/26 02:57:16;;;;;;;10.15;5.65;;;;;;;11.61;75.00;99344.41;2617780;54;20537;-68
2021/10/26 02:59:46;;;;;;;9.05;6.57;;;;;;;11.63;74.79;99345.03;2618605;54;20051;-68
2021/10/26 03:02:16;;;;;;;9.57;6.13;;;;;;;11.63;75.10;99353.00;2617871;54;20577;-68
2021/10/26 03:04:46;;;;;;;13.65;6.43;;;;;;;11.64;74.77;99352.00;2618027;46;20117;-68
2021/10/26 03:07:18;;;;;;;10.27;5.90;;;;;;;11.66;75.06;99347.31;2617799;47;20529;-68
2021/10/26 03:09:48;;;;;;;7.43;5.38;;;;;;;11.66;74.76;99355.28;2618004;47;20027;-68
2021/10/26 03:12:17;;;;;;;7.72;5.28;;;;;;;11.64;74.45;99357.31;2617948;39;20686;-68
2021/10/26 03:14:47;;;;;;;9.80;5.82;;;;;;;11.65;74.39;99351.00;2617778;54;20049;-68
2021/10/26 03:17:17;;;;;;;13.98;7.63;;;;;;;11.64;74.47;99354.66;2618077;54;20030;-69
2021/10/26 03:20:03;;;;;;;13.90;7.18;;;;;;;11.63;74.47;99353.00;2618125;54;20041;-68
2021/10/26 03:22:36;;;;;;;9.13;6.53;;;;;;;11.60;74.74;99362.16;2618476;54;20035;-68
2021/10/26 03:25:06;;;;;;;8.73;5.77;;;;;;;11.53;74.55;99360.41;2618042;47;20031;-68
2021/10/26 03:27:37;;;;;;;11.63;6.43;;;;;;;11.51;74.75;99367.72;2617930;47;20054;-69
2021/10/26 03:30:12;;;;;;;10.82;6.43;;;;;;;11.49;75.04;99362.59;2617673;47;20034;-68
2021/10/26 03:32:42;;;;;;;9.68;6.60;;;;;;;11.50;74.91;99372.19;2617645;46;20034;-68
2021/10/26 03:35:27;;;;;;;11.50;6.78;;;;;;;11.49;75.26;99372.38;2617935;47;20034;-68
2021/10/26 03:38:00;;;;;;;9.00;6.57;;;;;;;11.51;74.80;99378.31;2617869;54;20037;-68
2021/10/26 03:40:29;;;;;;;11.38;7.28;;;;;;;11.54;75.16;99373.47;2618546;54;20058;-68
2021/10/26 03:43:00;;;;;;;8.30;6.55;;;;;;;11.52;75.08;99378.13;2618320;54;20029;-68
2021/10/26 03:45:30;;;;;;;11.30;7.47;;;;;;;11.51;75.22;99373.00;2623682;47;20034;-68
2021/10/26 03:48:01;;;;;;;9.82;7.07;;;;;;;11.51;75.00;99376.50;2624591;54;20083;-69
2021/10/26 03:50:30;;;;;;;15.15;6.93;;;;;;;11.52;75.34;99375.47;2624794;47;20062;-69
2021/10/26 03:53:03;;;;;;;13.50;7.38;;;;;;;11.52;75.18;99379.97;2625851;54;20045;-68
2021/10/26 03:55:32;;;;;;;9.73;6.38;;;;;;;11.51;75.05;99380.94;2624863;54;20031;-68
2021/10/26 03:58:02;;;;;;;10.30;6.32;;;;;;;11.52;75.10;99374.66;2624739;47;20019;-68
2021/10/26 04:00:32;;;;;;;10.10;6.63;;;;;;;11.50;75.20;99371.38;2625400;47;20034;-68
2021/10/26 04:03:22;;;;;;;7.15;6.40;;;;;;;11.46;75.02;99376.22;2625325;47;20034;-68
2021/10/26 04:05:59;;;;;;;11.73;6.78;;;;;;;11.45;75.36;99374.56;2624371;47;20026;-68
2021/10/26 04:08:36;;;;;;;10.90;6.43;;;;;;;11.43;75.31;99371.31;2624521;47;20034;-69
2021/10/26 04:11:11;;;;;;;10.27;6.57;;;;;;;11.43;75.30;99371.31;2624339;47;20037;-69
2021/10/26 04:13:41;;;;;;;8.73;6.00;;;;;;;11.42;75.58;99380.22;2624915;47;20030;-68
2021/10/26 04:16:12;;;;;;;11.77;6.65;;;;;;;11.41;75.47;99390.00;2621325;47;20038;-68
2021/10/26 04:18:42;;;;;;;9.88;7.22;;;;;;;11.44;75.36;99382.72;2620831;54;20565;-68
2021/10/26 04:21:13;;;;;;;8.68;7.05;;;;;;;11.45;75.17;99382.50;2618809;47;20073;-68
2021/10/26 04:23:51;;;;;;;7.68;6.38;;;;;;;11.43;75.47;99381.91;2620495;54;20069;-69
2021/10/26 04:26:22;;;;;;;10.45;7.00;;;;;;;11.41;75.35;99379.41;2621444;54;20042;-69
2021/10/26 04:28:52;;;;;;;8.23;6.18;;;;;;;11.45;75.61;99382.50;2621439;54;20021;-68
2021/10/26 04:31:22;;;;;;;11.18;6.50;;;;;;;11.47;75.44;99382.31;2621582;47;20081;-68
2021/10/26 04:33:53;;;;;;;11.45;7.47;;;;;;;11.45;75.66;99389.63;2621573;47;20038;-68
2021/10/26 04:36:23;;;;;;;9.88;6.72;;;;;;;11.43;75.49;99386.34;2620923;54;20038;-68
2021/10/26 04:38:59;;;;;;;;;;;;;;;11.45;75.36;99393.09;2621773;54;20034;-69
2021/10/26 04:41:29;;;;;;;7.97;6.18;;;;;;;11.49;75.23;99389.09;2622857;39;20436;-69
2021/10/26 04:43:59;;;;;;;11.68;6.18;;;;;;;11.48;75.57;99384.81;2622233;51;20133;-68
2021/10/26 04:46:29;;;;;;;10.52;6.72;;;;;;;11.48;75.66;99386.63;2623074;39;20469;-68
2021/10/26 04:48:59;;;;;;;10.30;7.07;;;;;;;11.47;75.87;99390.25;2621805;47;20588;-68
2021/10/26 04:51:31;;;;;;;11.02;6.60;;;;;;;11.48;75.80;99386.63;2620537;47;20026;-68
2021/10/26 04:54:04;;;;;;;9.15;5.75;;;;;;;11.43;75.15;99381.91;2619886;47;20206;-69
2021/10/26 04:56:34;;;;;;;11.23;5.78;;;;;;;11.37;75.38;99388.72;2619629;39;20442;-68
2021/10/26 04:59:22;;;;;;;9.90;5.57;;;;;;;11.36;75.47;99389.75;2619360;54;20037;-68
2021/10/26 05:01:52;;;;;;;12.32;5.68;;;;;;;11.38;75.71;99389.53;2619020;47;20050;-68
2021/10/26 05:04:26;;;;;;;9.32;5.53;;;;;;;11.34;75.82;99396.19;2618866;54;20038;-68
2021/10/26 05:06:56;;;;;;;10.32;5.85;;;;;;;11.35;75.71;99400.53;2618322;46;20026;-68
2021/10/26 05:09:29;;;;;;;7.55;4.97;;;;;;;11.35;75.79;99403.97;2619346;54;20033;-68
2021/10/26 05:11:59;;;;;;;8.93;5.68;;;;;;;11.37;75.86;99401.97;2619101;51;20022;-68
2021/10/26 05:14:28;;;;;;;6.63;5.30;;;;;;;11.34;76.01;99404.16;2618925;54;20034;-68
2021/10/26 05:17:02;;;;;;;13.32;7.13;;;;;;;11.31;75.88;99407.19;2619126;54;20034;-68
2021/10/26 05:19:52;;;;;;;11.68;6.35;;;;;;;11.24;75.75;99412.38;2618207;54;20545;-68
2021/10/26 05:22:42;;;;;;;7.50;5.97;;;;;;;11.25;76.57;99416.66;2617521;47;20652;-68
2021/10/26 05:25:27;;;;;;;9.52;5.97;;;;;;;11.27;76.08;99417.31;2617545;47;20109;-68
2021/10/26 05:28:12;;;;;;;11.32;5.47;;;;;;;11.28;76.64;99418.13;2617730;47;20037;-68
2021/10/26 05:30:42;;;;;;;8.57;5.70;;;;;;;11.33;76.81;99421.84;2617618;47;20796;-68
2021/10/26 05:33:12;;;;;;;8.32;6.05;;;;;;;11.38;76.54;99430.06;2617749;47;20807;-68
2021/10/26 05:35:42;;;;;;;8.18;6.10;;;;;;;11.44;76.58;99425.06;2618859;54;20018;-68
2021/10/26 05:38:11;;;;;;;10.48;6.45;;;;;;;11.46;76.47;99428.34;2618165;47;20022;-68
2021/10/26 05:40:45;;;;;;;10.00;6.63;;;;;;;11.47;76.18;99435.28;2617732;47;20035;-68
2021/10/26 05:43:14;;;;;;;10.48;6.50;;;;;;;11.45;76.04;99439.94;2618444;54;20042;-68
2021/10/26 05:45:47;;;;;;;8.55;6.72;;;;;;;11.39;76.33;99437.03;2617699;54;20585;-68
2021/10/26 05:48:18;;;;;;;10.95;7.35;;;;;;;11.40;76.62;99440.50;2618312;39;20506;-68
2021/10/26 05:50:48;;;;;;;10.20;6.95;;;;;;;11.36;76.60;99436.56;2619028;54;20043;-68
2021/10/26 05:53:18;;;;;;;11.32;7.05;;;;;;;11.39;76.51;99439.69;2620034;54;20030;-68
2021/10/26 05:55:50;;;;;;;12.45;7.65;;;;;;;11.36;76.42;99445.31;2619884;54;20027;-67
2021/10/26 05:58:20;;;;;;;10.55;7.63;;;;;;;11.38;76.87;99443.31;2619847;54;20114;-67
2021/10/26 06:00:50;;;;;;;11.60;9.00;;;;;;;11.39;76.56;99444.97;2619763;47;20537;-67
2021/10/26 06:03:20;;;;;;;12.90;7.75;;;;;;;11.41;76.93;99442.94;2620771;47;20038;-67
2021/10/26 06:05:49;;;;;;;11.23;7.20;;;;;;;11.39;77.07;99446.78;2618511;54;20541;-67
2021/10/26 06:08:19;;;;;;;10.35;6.75;;;;;;;11.39;77.16;99447.63;2618376;47;20058;-67
2021/10/26 06:10:55;;;;;;;11.75;7.30;;;;;;;11.47;76.82;99445.84;2618125;54;20042;-67
2021/10/26 06:13:29;;;;;;;14.25;6.85;;;;;;;11.47;76.89;99446.72;2622401;54;20035;-68
2021/10/26 06:15:59;;;;;;;13.48;6.60;;;;;;;11.42;76.62;99454.34;2621326;54;20023;-67
2021/10/26 06:18:28;;;;;;;10.40;6.22;;;;;;;11.47;76.81;99454.66;2621653;51;20026;-67
2021/10/26 06:20:59;;;;;;;10.65;6.13;;;;;;;11.48;76.75;99461.59;2623236;39;20429;-67
2021/10/26 06:23:29;;;;;;;7.88;6.22;;;;;;;11.52;76.85;99462.03;2622934;54;20034;-67
2021/10/26 06:26:02;;;;;;;10.27;7.38;;;;;;;11.54;76.65;99467.97;2623041;51;20030;-67
2021/10/26 06:28:33;;;;;;;13.02;7.72;;;;;;;11.55;76.77;99470.44;2620766;54;20046;-68
2021/10/26 06:31:04;;;;;;;9.80;7.00;;;;;;;11.57;76.39;99468.44;2618985;47;20034;-68
2021/10/26 06:33:41;;;;;;;9.60;6.65;;;;;;;11.53;76.62;99471.63;2618543;46;20113;-70
2021/10/26 06:36:21;;;;;;;10.60;6.97;;;;;;;11.52;76.92;99470.81;2618553;47;20023;-69
2021/10/26 06:38:54;;;;;;;9.25;6.05;;;;;;;11.52;76.91;99470.81;2618583;47;20035;-69
2021/10/26 06:41:27;;;;;;;6.97;5.63;;;;;;;11.53;76.74;99474.28;2618965;54;20041;-68
2021/10/26 06:44:03;;;;;;;7.10;6.05;;;;;;;11.53;77.14;99475.09;2619754;47;20048;-69
2021/10/26 06:46:51;;;;;;;9.48;6.13;;;;;;;11.56;76.86;99480.03;2619660;54;20037;-69
2021/10/26 06:49:39;;;;;;;7.07;6.20;;;;;;;11.55;76.76;99483.69;2623814;54;20061;-69
2021/10/26 06:52:28;;;;;;;9.25;7.05;;;;;;;11.51;76.96;99487.69;2624606;54;20038;-69
2021/10/26 06:55:18;;;;;;;8.80;7.00;;;;;;;11.50;77.27;99487.88;2624898;54;20038;-68
2021/10/26 06:58:09;;;;;;;7.90;7.07;;;;;;;11.51;77.14;99495.66;2625159;54;20545;-68
2021/10/26 07:01:09;;;;;;;12.70;7.80;;;;;;;11.53;77.13;99492.81;2623719;46;20073;-69
2021/10/26 07:03:51;;;;;;;13.45;8.27;;;;;;;11.51;77.27;99514.19;2625325;54;20588;-68
2021/10/26 07:06:41;;;;;;;10.20;8.35;;;;;;;11.52;77.60;99515.81;2625089;54;20034;-69
2021/10/26 07:09:36;;;;;;;9.60;7.80;;;;;;;11.55;77.47;99526.06;2626012;54;20038;-70
2021/10/26 07:12:14;;;;;;;14.68;8.85;;;;;;;11.59;77.62;99524.69;2626121;39;20433;-70
2021/10/26 07:14:48;;;;;;;12.73;9.27;;;;;;;11.60;77.67;99525.50;2625851;47;20082;-70
2021/10/26 07:17:18;;;;;;;14.77;9.82;;;;;;;11.66;77.93;99525.59;2625538;54;20034;-71
2021/10/26 07:19:49;;;;;;;11.90;9.65;;;;;;;11.69;77.58;99528.88;2622419;39;20419;-69
2021/10/26 07:22:30;;;;;;;14.52;10.48;;;;;;;11.70;77.57;99536.63;2621096;54;20031;-69
2021/10/26 07:25:19;;;;;;;14.40;10.52;;;;;;;11.69;77.73;99534.19;2620036;54;20585;-68
2021/10/26 07:27:56;;;;;;;16.52;11.52;;;;;;;11.64;77.57;99538.19;2618218;54;20062;-68
2021/10/26 07:30:32;;;;;;;14.35;10.30;;;;;;;11.62;78.10;99544.66;2619229;54;20186;-69
2021/10/26 07:33:04;;;;;;;13.35;9.88;;;;;;;11.61;78.02;99548.34;2620978;39;20430;-69
2021/10/26 07:35:40;;;;;;;15.13;10.32;;;;;;;11.64;78.37;99548.78;2619950;47;20045;-68
2021/10/26 07:38:13;;;;;;;16.75;11.90;;;;;;;11.76;78.07;99543.88;2621186;54;20593;-70
2021/10/26 07:40:43;;;;;;;14.80;10.37;;;;;;;11.84;78.29;99543.00;2621349;54;20030;-70
2021/10/26 07:43:33;;;;;;;12.85;10.23;;;;;;;11.85;77.97;99548.09;2622023;54;20298;-70
2021/10/26 07:46:24;;;;;;;11.63;9.82;;;;;;;11.92;77.85;99552.66;2623500;54;20053;-70
2021/10/26 07:48:54;;;;;;;14.50;10.27;;;;;;;11.93;77.52;99562.28;2624302;54;20022;-68
2021/10/26 07:51:23;;;;;;;17.55;10.45;;;;;;;12.00;77.33;99560.50;2624339;47;20029;-69
2021/10/26 07:53:53;;;;;;;14.10;11.27;;;;;;;12.07;77.54;99561.44;2623413;47;20078;-68
2021/10/26 07:56:23;;;;;;;10.82;9.43;;;;;;;12.06;77.26;99568.56;2623205;47;20030;-69
2021/10/26 07:58:55;;;;;;;11.80;8.45;;;;;;;12.12;77.38;99570.50;2622144;47;20123;-68
2021/10/26 08:01:28;;;;;;;10.75;8.30;;;;;;;12.24;77.29;99575.31;2619043;54;20034;-68
2021/10/26 08:04:27;;;;;;;14.55;9.95;;;;;;;12.31;76.63;99573.56;2618352;47;20050;-68
2021/10/26 08:07:20;;;;;;;10.90;8.77;;;;;;;12.34;76.50;99574.03;2623882;46;20546;-69
2021/10/26 08:09:51;;;;;;;10.95;8.27;;;;;;;12.36;76.64;99576.47;2624742;54;20034;-69
2021/10/26 08:12:23;;;;;;;9.48;6.88;;;;;;;12.37;76.54;99580.81;2624764;54;20033;-70
2021/10/26 08:14:57;;;;;;;10.75;7.95;;;;;;;12.39;76.13;99576.13;2624045;47;20041;-70
2021/10/26 08:17:29;;;;;;;8.57;7.40;;;;;;;12.37;76.08;99573.66;2624339;39;20489;-70
2021/10/26 08:19:59;;;;;;;25.33;14.50;;;;;;;12.37;75.79;99580.81;2623813;39;20426;-70
2021/10/26 08:22:32;;;;;;;13.77;11.25;;;;;;;12.36;75.47;99581.78;2623379;47;20034;-69
2021/10/26 08:25:09;;;;;;;10.98;9.93;;;;;;;12.39;75.44;99589.38;2622566;54;20030;-69
2021/10/26 08:27:40;;;;;;;7.95;7.13;;;;;;;12.38;75.32;99585.91;2623506;47;20055;-69
2021/10/26 12:27:34;;;;;;;;;;;;;;;15.38;60.57;99546.09;795650;54;1454482517;31
2021/10/26 12:30:25;;;;;;;8.85;5.00;;;;;;;15.35;60.90;99547.34;2616886;47;19985;-72
2021/10/26 12:33:01;;;;;;;10.88;6.13;;;;;;;15.13;61.26;99549.34;2617745;47;20046;-73
2021/10/26 12:35:32;;;;;;;7.28;4.22;;;;;;;15.19;61.87;99551.22;2617670;54;20121;-72
2021/10/26 12:38:12;;;;;;;7.90;3.70;;;;;;;15.33;61.47;99544.84;2617605;46;20043;-71
2021/10/26 12:40:43;;;;;;;5.85;3.58;;;;;;;15.52;60.25;99548.53;2620987;39;20446;-71
2021/10/26 12:43:24;;;;;;;4.13;3.45;;;;;;;15.63;59.68;99547.06;2619637;51;20050;-72
2021/10/26 12:45:56;;;;;;;7.03;4.90;;;;;;;15.54;60.23;99545.66;2618016;39;20489;-72
2021/10/26 12:48:34;;;;;;;8.68;4.18;;;;;;;15.55;60.39;99547.28;2617590;54;20037;-72
2021/10/26 12:51:07;;;;;;;8.50;5.40;;;;;;;15.52;60.51;99550.38;2617446;54;20121;-72
2021/10/26 12:53:39;;;;;;;7.38;3.50;;;;;;;15.45;60.26;99549.56;2617584;54;20038;-72
2021/10/26 12:56:20;;;;;;;9.48;6.30;;;;;;;15.44;60.67;99547.94;2617756;39;20365;-72
2021/10/26 12:58:54;;;;;;;10.10;4.93;;;;;;;15.38;60.61;99544.22;2617834;54;20074;-73
2021/10/26 13:01:31;;;;;;;6.38;3.90;;;;;;;15.44;60.93;99535.44;2617352;47;20530;-73
2021/10/26 13:04:07;;;;;;;7.43;3.60;;;;;;;15.50;60.98;99534.59;2618349;31;20521;-72
2021/10/26 13:06:40;;;;;;;8.65;4.75;;;;;;;15.61;60.93;99531.31;2617575;47;20038;-71
2021/10/26 13:09:22;;;;;;;4.90;3.65;;;;;;;15.71;60.20;99527.41;2617793;54;20037;-71
2021/10/26 13:12:07;;;;;;;8.25;5.68;;;;;;;15.56;60.26;99532.97;2618004;39;20463;-73
2021/10/26 13:14:43;;;;;;;3.78;2.90;;;;;;;15.36;60.47;99528.47;2617505;54;20038;-72
2021/10/26 13:17:31;;;;;;;3.45;2.88;;;;;;;15.34;60.26;99535.81;2618149;39;20489;-71
2021/10/26 13:20:18;;;;;;;4.53;3.20;;;;;;;15.25;60.94;99534.41;2616796;47;20030;-73
2021/10/26 13:23:07;;;;;;;6.32;4.85;;;;;;;15.19;60.93;99521.91;2618445;39;20498;-74
2021/10/26 13:25:43;;;;;;;5.25;2.78;;;;;;;15.12;61.18;99529.09;2617475;54;20557;-71
2021/10/26 13:28:15;;;;;;;5.65;3.10;;;;;;;15.16;61.53;99522.31;2617348;39;20422;-72
2021/10/26 13:30:53;;;;;;;5.15;3.05;;;;;;;15.15;61.82;99528.69;2617033;54;20038;-71
2021/10/26 13:33:24;;;;;;;5.63;3.22;;;;;;;15.05;61.93;99526.41;2617603;54;20558;-73
2021/10/26 13:35:53;;;;;;;4.35;2.50;;;;;;;14.92;61.55;99528.25;2616956;54;20022;-73
2021/10/26 13:38:24;;;;;;;3.25;2.70;;;;;;;14.93;61.96;99528.03;2616931;54;20023;-73
2021/10/26 13:40:54;;;;;;;3.17;2.40;;;;;;;14.97;61.87;99537.25;2617876;54;20036;-73
2021/10/26 13:43:25;;;;;;;4.53;3.00;;;;;;;15.00;62.13;99533.38;2617666;54;20038;-72
2021/10/26 13:46:00;;;;;;;4.50;2.85;;;;;;;15.03;61.58;99528.47;2618613;54;20035;-72
2021/10/26 13:48:32;;;;;;;4.30;2.70;;;;;;;15.00;61.13;99526.19;2618718;54;20135;-72
2021/10/26 13:51:03;;;;;;;5.65;2.60;;;;;;;15.04;60.96;99522.09;2618978;54;20553;-73
2021/10/26 13:53:33;;;;;;;5.05;2.28;;;;;;;15.04;60.28;99526.63;2619180;54;20083;-72
2021/10/26 13:56:03;;;;;;;4.65;2.35;;;;;;;15.05;59.92;99529.06;2618874;54;20569;-72
2021/10/26 13:58:33;;;;;;;3.53;2.10;;;;;;;14.99;59.72;99540.53;2618700;54;20556;-72
2021/10/26 14:01:09;;;;;;;2.63;2.10;;;;;;;14.99;59.55;99545.06;2618257;54;20558;-72
2021/10/26 14:03:39;;;;;;;3.17;2.10;;;;;;;14.94;59.39;99542.16;2617919;47;20030;-74
2021/10/26 14:06:09;;;;;;;5.13;2.25;;;;;;;14.94;59.72;99539.50;2619287;39;20685;-73
2021/10/26 14:08:39;;;;;;;2.50;1.90;;;;;;;14.89;59.73;99545.44;2618481;54;20160;-73
2021/10/26 14:11:11;;;;;;;2.58;1.67;;;;;;;14.82;60.02;99544.63;2618198;47;20042;-72
2021/10/26 14:13:42;;;;;;;4.72;2.10;;;;;;;14.75;60.08;99544.59;2619182;39;20497;-72
2021/10/26 14:16:15;;;;;;;2.10;1.90;;;;;;;14.76;60.58;99543.56;2618772;54;20042;-73
2021/10/26 14:18:46;;;;;;;;;;;;;;;14.75;60.79;99551.75;2619420;54;20039;-71
2021/10/26 14:21:17;;;;;;;2.83;1.83;;;;;;;14.74;60.93;99550.94;2617272;47;19943;-73
2021/10/26 14:23:46;;;;;;;4.60;1.70;;;;;;;14.75;60.80;99555.25;2618345;54;20022;-73
2021/10/26 14:26:36;;;;;;;3.47;2.13;;;;;;;14.82;60.35;99549.94;2618940;54;20033;-72
2021/10/26 14:29:06;;;;;;;2.08;1.70;;;;;;;14.86;60.50;99552.00;2618783;54;20565;-73
2021/10/26 14:31:38;;;;;;;2.90;1.60;;;;;;;14.89;60.71;99549.94;2617146;47;20093;-71
2021/10/26 14:34:08;;;;;;;3.13;1.90;;;;;;;14.81;60.66;99553.59;2617555;54;20042;-72
2021/10/26 14:36:52;;;;;;;3.50;1.77;;;;;;;14.78;61.00;99548.72;2618920;54;20043;-73
2021/10/26 14:39:26;;;;;;;2.78;2.20;;;;;;;14.73;60.96;99553.78;2617607;54;20577;-72
2021/10/26 14:42:13;;;;;;;5.18;2.10;;;;;;;14.72;61.34;99558.28;2618082;54;20538;-71
2021/10/26 14:53:08;;;;;;;5.05;1.77;;;;;;;14.40;61.68;99561.63;2617829;54;20038;-72
2021/10/26 14:56:06;;;;;;;2.60;1.85;;;;;;;14.37;62.18;99561.03;2618015;46;20062;-70
2021/10/26 14:58:37;;;;;;;3.35;2.45;;;;;;;14.30;62.32;99560.19;2618717;54;20027;-73
2021/10/26 15:01:09;;;;;;;4.40;2.10;;;;;;;14.26;62.07;99558.94;2618044;47;20026;-73
2021/10/26 15:03:42;;;;;;;4.13;1.70;;;;;;;14.27;61.84;99549.94;2619144;54;20045;-73
2021/10/26 15:06:14;;;;;;;4.80;2.03;;;;;;;14.30;61.57;99562.03;2619590;54;20022;-72
2021/10/26 15:08:50;;;;;;;3.83;1.95;;;;;;;14.30;61.92;99562.84;2619995;54;20026;-73
2021/10/26 15:11:21;;;;;;;4.15;1.70;;;;;;;14.29;61.51;99557.72;2619812;54;20030;-74
2021/10/26 15:13:53;;;;;;;3.58;2.42;;;;;;;14.29;61.72;99561.19;2621083;54;20041;-73
2021/10/26 15:16:23;;;;;;;4.00;2.10;;;;;;;14.25;61.74;99564.47;2620805;39;20128;-73
2021/10/26 15:18:59;;;;;;;4.60;1.77;;;;;;;14.19;61.82;99565.22;2621708;54;20022;-71
2021/10/26 15:21:33;;;;;;;3.22;2.33;;;;;;;14.16;62.36;99578.91;2624159;54;20059;-72
2021/10/26 15:34:55;;;;;;;4.68;2.78;;;;;;;14.08;62.51;99598.50;2618531;54;20034;-71
2021/10/26 15:37:24;;;;;;;2.97;2.15;;;;;;;14.03;62.55;99592.97;2617944;47;20034;-72
2021/10/26 15:39:54;;;;;;;3.40;2.20;;;;;;;13.98;62.94;99593.53;2618733;39;20454;-71
2021/10/26 15:42:24;;;;;;;3.95;3.15;;;;;;;13.91;63.17;99594.50;2618229;54;20022;-74
2021/10/26 15:44:54;;;;;;;4.05;2.83;;;;;;;13.84;63.25;99592.66;2618668;54;20034;-72
2021/10/26 15:47:24;;;;;;;5.07;2.60;;;;;;;13.79;63.52;99591.56;2617613;47;20031;-71
2021/10/26 15:49:56;;;;;;;4.55;2.42;;;;;;;13.77;63.08;99586.47;2619165;54;20100;-71
2021/10/26 15:52:26;;;;;;;5.15;2.75;;;;;;;13.72;63.61;99599.50;2618839;54;20037;-73
2021/10/26 15:54:55;;;;;;;3.67;2.70;;;;;;;13.65;63.69;99603.94;2618825;54;20038;-70
2021/10/26 15:57:25;;;;;;;4.50;2.95;;;;;;;13.63;63.54;99600.66;2618913;39;20429;-72
2021/10/26 15:59:55;;;;;;;4.55;2.47;;;;;;;13.57;63.86;99591.63;2618768;54;20030;-73
2021/10/26 16:02:25;;;;;;;5.80;3.60;;;;;;;13.52;64.43;99594.03;2619069;47;20031;-72
2021/10/26 16:04:58;;;;;;;3.65;2.80;;;;;;;13.49;64.26;99612.19;2619401;54;20035;-74
2021/10/26 16:07:32;;;;;;;3.42;2.30;;;;;;;13.43;64.77;99613.78;2619331;39;20691;-73
2021/10/26 16:10:07;;;;;;;3.85;2.67;;;;;;;13.38;64.78;99611.69;2618681;54;20037;-73
2021/10/26 16:12:40;;;;;;;6.47;2.28;;;;;;;13.35;65.13;99613.94;2619037;54;20038;-71
2021/10/26 16:15:14;;;;;;;4.75;2.42;;;;;;;13.28;65.43;99613.84;2619393;54;20018;-72
2021/10/26 16:17:44;;;;;;;5.55;2.63;;;;;;;13.23;65.64;99615.44;2619048;54;20042;-73
2021/10/26 16:20:17;;;;;;;3.55;2.70;;;;;;;13.21;66.00;99615.59;2619154;54;20542;-72